Time;durP1;ratioP1;P1;durP2;ratioP2;P2;SDS_P1;SDS_P2;PMS_P1;PMS_P2;Temp;Humidity;BMP_temperature;BMP_pressure;BME280_temperature;BME280_humidity;BME280_pressure;Samples;Min_cycle;Max_cycle;Signal;HPM_P1;HPM_P2
2023/06/01 00:02:01;;;;;;;7.18;1.52;;;;;;;19.80;43.17;101618.72;5017777;28;20123;-36
2023/06/01 00:04:27;;;;;;;7.55;1.73;;;;;;;19.74;43.71;101611.19;5025912;28;20037;-37
2023/06/01 00:06:52;;;;;;;10.68;1.90;;;;;;;19.75;43.89;101620.91;5022202;28;20034;-36
2023/06/01 00:09:18;;;;;;;5.80;1.90;;;;;;;19.74;43.75;101624.56;5019911;28;20044;-35
2023/06/01 00:11:43;;;;;;;5.10;2.08;;;;;;;19.62;44.41;101617.56;5024408;28;20565;-36
2023/06/01 00:14:09;;;;;;;6.25;1.80;;;;;;;19.64;44.59;101618.28;5025154;28;20148;-36
2023/06/01 00:16:34;;;;;;;7.50;2.13;;;;;;;19.64;44.33;101618.28;5029290;28;20123;-44
2023/06/01 00:19:03;;;;;;;7.10;2.30;;;;;;;19.54;44.87;101618.19;5029610;28;20125;-36
2023/06/01 00:21:31;;;;;;;8.45;2.80;;;;;;;19.39;45.36;101620.31;5029671;28;20439;-36
2023/06/01 00:23:57;;;;;;;10.20;2.55;;;;;;;19.40;45.23;101616.69;5021786;28;20119;-36
2023/06/01 00:26:23;;;;;;;9.07;2.40;;;;;;;19.40;45.50;101615.81;5026849;28;20399;-36
2023/06/01 00:28:48;;;;;;;5.90;2.28;;;;;;;19.38;45.70;101615.94;5025183;28;20518;-36
2023/06/01 00:31:14;;;;;;;7.53;2.83;;;;;;;19.38;45.62;101615.94;5026749;28;20025;-37
2023/06/01 00:33:40;;;;;;;7.55;2.17;;;;;;;19.36;46.05;101615.22;5023493;28;20044;-37
2023/06/01 00:36:05;;;;;;;5.28;2.17;;;;;;;19.30;46.31;101610.38;5011750;28;20032;-36
2023/06/01 00:38:31;;;;;;;7.88;2.42;;;;;;;19.29;46.23;101614.00;5023857;28;20047;-36
2023/06/01 00:40:56;;;;;;;10.38;2.28;;;;;;;19.22;46.58;101607.50;5024500;28;20060;-36
2023/06/01 00:43:22;;;;;;;4.43;2.22;;;;;;;19.18;46.82;101606.91;5025352;28;20041;-37
2023/06/01 00:45:47;;;;;;;6.28;2.28;;;;;;;19.24;46.86;101602.88;5023479;28;20041;-36
2023/06/01 00:48:15;;;;;;;6.05;2.58;;;;;;;19.29;46.54;101609.53;5023609;28;20029;-36
2023/06/01 00:50:41;;;;;;;8.20;2.53;;;;;;;19.22;47.07;101611.00;5022773;28;20040;-38
2023/06/01 00:53:10;;;;;;;6.15;2.90;;;;;;;19.12;47.32;101612.72;5023530;28;20527;-37
2023/06/01 00:55:36;;;;;;;6.05;2.35;;;;;;;19.07;47.37;101615.75;5021302;28;20495;-38
2023/06/01 00:58:02;;;;;;;8.73;2.72;;;;;;;19.01;47.75;101611.78;5022205;28;20029;-36
2023/06/01 01:00:29;;;;;;;8.65;2.58;;;;;;;19.01;47.65;101602.91;5023882;28;20087;-37
2023/06/01 01:02:56;;;;;;;8.68;2.67;;;;;;;19.02;47.97;101604.59;5019025;28;20647;-36
2023/06/01 01:05:26;;;;;;;10.23;3.22;;;;;;;19.06;47.78;101606.06;5025051;28;20688;-37
2023/06/01 01:07:54;;;;;;;9.60;2.90;;;;;;;19.02;48.40;101601.94;5024530;28;20040;-36
2023/06/01 01:10:37;;;;;;;6.38;2.47;;;;;;;18.95;48.58;101603.41;5023623;28;20340;-36
2023/06/01 01:13:26;;;;;;;11.55;3.15;;;;;;;18.97;48.93;101598.81;5024835;28;20029;-37
2023/06/01 01:16:02;;;;;;;9.90;2.42;;;;;;;18.96;48.37;101602.44;5025323;28;20064;-37
2023/06/01 01:18:35;;;;;;;5.90;2.72;;;;;;;18.99;48.43;101596.84;5024893;28;20650;-37
2023/06/01 01:21:03;;;;;;;6.32;2.72;;;;;;;18.87;48.40;101596.00;5022415;28;20057;-39
2023/06/01 01:23:58;;;;;;;9.00;2.80;;;;;;;18.85;48.96;101593.44;5024889;28;20026;-36
2023/06/01 01:26:44;;;;;;;8.98;2.75;;;;;;;18.71;49.43;101588.34;5023006;28;20075;-39
2023/06/01 01:29:14;;;;;;;10.02;3.33;;;;;;;18.74;48.66;101594.31;5011130;28;20132;-37
2023/06/01 01:31:40;;;;;;;13.40;3.40;;;;;;;18.76;48.87;101591.50;5021091;28;20410;-37
2023/06/01 01:34:08;;;;;;;14.90;3.40;;;;;;;18.79;48.87;101587.75;5022656;28;20040;-38
2023/06/01 01:36:34;;;;;;;11.05;2.85;;;;;;;18.73;48.96;101586.41;5026038;28;20036;-36
2023/06/01 01:38:59;;;;;;;8.07;2.90;;;;;;;18.72;49.11;101587.38;5017892;28;20034;-36
2023/06/01 01:41:25;;;;;;;13.15;3.33;;;;;;;18.57;49.63;101592.13;5020759;28;20044;-37
2023/06/01 01:43:52;;;;;;;9.85;3.40;;;;;;;18.48;49.76;101584.81;5020451;28;20399;-38
2023/06/01 01:46:26;;;;;;;9.48;2.95;;;;;;;18.46;50.26;101589.41;5023862;28;20034;-36
2023/06/01 01:49:10;;;;;;;8.40;2.65;;;;;;;18.34;51.03;101585.91;5028380;28;20511;-36
2023/06/01 01:52:02;;;;;;;18.42;3.63;;;;;;;18.30;50.54;101590.66;5023404;28;20491;-39
2023/06/01 01:54:29;;;;;;;9.80;3.22;;;;;;;18.30;50.14;101590.66;5020911;28;20116;-37
2023/06/01 01:56:58;;;;;;;10.88;3.17;;;;;;;18.27;50.46;101589.03;5019151;28;20037;-35
2023/06/01 01:59:24;;;;;;;7.90;2.88;;;;;;;18.18;50.59;101597.75;5021760;28;20022;-36
2023/06/01 02:01:50;;;;;;;9.05;3.40;;;;;;;18.20;50.44;101590.50;5021280;28;20037;-40
2023/06/01 02:04:15;;;;;;;6.70;2.80;;;;;;;18.22;50.66;101588.56;5025479;28;20487;-37
2023/06/01 02:06:41;;;;;;;16.58;3.83;;;;;;;18.20;50.67;101593.16;5027341;28;20487;-37
2023/06/01 02:09:07;;;;;;;12.52;3.92;;;;;;;18.21;50.80;101589.53;5025827;28;20029;-36
2023/06/01 02:11:33;;;;;;;12.05;3.20;;;;;;;18.18;50.92;101584.44;5025052;28;20415;-36
2023/06/01 02:13:59;;;;;;;7.05;2.67;;;;;;;18.20;50.73;101581.66;5022999;28;20022;-36
2023/06/01 02:16:25;;;;;;;7.57;2.60;;;;;;;18.14;50.96;101585.63;5015170;28;20033;-40
2023/06/01 02:18:51;;;;;;;8.60;3.33;;;;;;;18.14;50.72;101582.97;5017919;28;20052;-36
2023/06/01 02:21:17;;;;;;;14.63;4.00;;;;;;;18.05;51.46;101575.69;5024853;28;20034;-43
2023/06/01 02:23:42;;;;;;;12.90;3.33;;;;;;;17.94;51.58;101574.66;5023887;28;20033;-37
2023/06/01 02:26:09;;;;;;;13.38;4.15;;;;;;;17.92;51.54;101571.25;5020831;28;20514;-40
2023/06/01 02:28:42;;;;;;;7.68;3.40;;;;;;;17.91;51.84;101572.25;5017448;28;20037;-36
2023/06/01 02:31:08;;;;;;;10.27;3.08;;;;;;;17.93;51.43;101570.28;5025176;28;20048;-35
2023/06/01 02:33:33;;;;;;;10.27;3.75;;;;;;;17.96;51.44;101566.56;5024020;28;20037;-35
2023/06/01 02:35:59;;;;;;;10.25;3.97;;;;;;;18.01;51.31;101568.91;5017529;28;20025;-36
2023/06/01 02:38:25;;;;;;;13.23;3.42;;;;;;;17.93;51.57;101559.63;5023007;28;20033;-36
2023/06/01 02:40:51;;;;;;;9.73;3.28;;;;;;;17.91;51.52;101553.59;5023687;28;20021;-36
2023/06/01 02:43:17;;;;;;;17.92;4.35;;;;;;;17.89;51.47;101554.66;5020468;28;20042;-37
2023/06/01 02:45:42;;;;;;;9.68;4.03;;;;;;;17.88;51.48;101552.97;5008416;28;20033;-36
2023/06/01 02:48:08;;;;;;;12.05;3.85;;;;;;;17.88;51.61;101550.31;5026763;28;20435;-36
2023/06/01 02:50:33;;;;;;;9.90;4.03;;;;;;;17.80;51.73;101545.56;5020086;28;20037;-37
2023/06/01 02:52:59;;;;;;;14.40;4.28;;;;;;;17.61;52.25;101546.97;5026544;28;20020;-36
2023/06/01 02:55:24;;;;;;;9.00;3.53;;;;;;;17.48;52.45;101546.16;5021005;28;20033;-39
2023/06/01 02:57:50;;;;;;;11.13;3.65;;;;;;;17.48;52.39;101547.03;5014678;28;20033;-36
2023/06/01 03:00:15;;;;;;;15.73;4.07;;;;;;;17.44;52.67;101545.56;5019828;28;20029;-37
2023/06/01 03:02:45;;;;;;;11.45;3.92;;;;;;;17.47;52.77;101549.81;5021831;28;20110;-37
2023/06/01 03:05:14;;;;;;;11.70;3.85;;;;;;;17.43;52.81;101543.84;5023417;28;20052;-35
2023/06/01 03:07:40;;;;;;;18.80;5.25;;;;;;;17.41;52.86;101551.09;5013599;28;20032;-37
2023/06/01 03:10:07;;;;;;;12.80;3.78;;;;;;;17.42;52.97;101543.97;5000733;28;20030;-37
2023/06/01 03:12:32;;;;;;;10.02;4.40;;;;;;;17.46;52.78;101545.47;5019820;28;20037;-36
2023/06/01 03:14:58;;;;;;;18.83;4.35;;;;;;;17.49;52.81;101548.72;5022350;28;20482;-40
2023/06/01 03:17:23;;;;;;;11.35;3.58;;;;;;;17.45;52.83;101557.91;5026715;28;20040;-36
2023/06/01 03:19:48;;;;;;;13.45;3.88;;;;;;;17.43;53.15;101554.50;5023551;28;20041;-36
2023/06/01 03:22:14;;;;;;;10.68;3.72;;;;;;;17.37;53.21;101545.16;5025779;28;20041;-36
2023/06/01 03:24:41;;;;;;;12.73;4.75;;;;;;;17.32;53.26;101552.63;5021102;28;20033;-40
2023/06/01 03:27:07;;;;;;;16.27;5.75;;;;;;;17.32;53.32;101544.63;5025690;28;20037;-39
2023/06/01 03:29:32;;;;;;;18.70;5.45;;;;;;;17.30;53.43;101545.72;5024761;28;20059;-36
2023/06/01 03:31:59;;;;;;;11.05;4.07;;;;;;;17.35;53.27;101549.75;5023542;28;20037;-41
2023/06/01 03:34:24;;;;;;;10.30;3.50;;;;;;;17.40;53.33;101537.91;5020225;28;20028;-36
2023/06/01 03:36:50;;;;;;;9.95;4.10;;;;;;;17.46;53.49;101543.63;5026267;28;20116;-37
2023/06/01 03:39:16;;;;;;;13.20;6.15;;;;;;;17.41;53.65;101544.94;5023094;28;20495;-36
2023/06/01 03:41:43;;;;;;;15.93;4.25;;;;;;;17.26;54.16;101546.91;5007125;28;20033;-37
2023/06/01 03:44:10;;;;;;;11.52;4.28;;;;;;;17.09;54.91;101542.84;5018180;28;20057;-36
2023/06/01 03:46:35;;;;;;;13.52;4.53;;;;;;;16.96;55.12;101534.88;5020208;28;20039;-39
2023/06/01 03:49:00;;;;;;;13.63;4.18;;;;;;;16.94;55.36;101540.28;5022517;28;20033;-36
2023/06/01 03:51:26;;;;;;;13.10;6.10;;;;;;;16.92;55.22;101536.88;5023945;28;20041;-39
2023/06/01 03:53:52;;;;;;;11.30;4.72;;;;;;;16.88;55.20;101541.59;5025433;28;20692;-38
2023/06/01 03:56:19;;;;;;;14.77;4.32;;;;;;;16.79;55.56;101533.41;5024687;28;20498;-37
2023/06/01 03:58:44;;;;;;;14.15;4.78;;;;;;;16.55;56.39;101544.84;5011395;28;20029;-36
2023/06/01 04:01:11;;;;;;;12.63;5.13;;;;;;;16.59;56.01;101541.00;5026777;28;20057;-41
2023/06/01 04:03:37;;;;;;;16.27;5.28;;;;;;;16.64;55.87;101549.50;5025106;28;20124;-41
2023/06/01 04:06:04;;;;;;;15.80;5.15;;;;;;;16.68;55.95;101553.66;5029111;28;20116;-37
2023/06/01 04:08:30;;;;;;;17.00;5.45;;;;;;;16.80;55.83;101543.09;5028014;28;20033;-37
2023/06/01 04:10:55;;;;;;;28.63;12.00;;;;;;;16.84;55.99;101539.28;5024847;28;20041;-38
2023/06/01 04:13:21;;;;;;;14.60;4.85;;;;;;;16.88;55.87;101543.38;5026876;28;20021;-38
2023/06/01 04:15:47;;;;;;;15.80;5.07;;;;;;;16.87;56.07;101554.97;5031376;28;20034;-40
2023/06/01 04:18:13;;;;;;;12.93;5.13;;;;;;;16.89;55.79;101540.63;5022619;28;20029;-37
2023/06/01 04:20:38;;;;;;;11.30;5.00;;;;;;;16.94;55.80;101545.59;5028605;28;20033;-37
2023/06/01 04:23:03;;;;;;;14.82;5.22;;;;;;;16.90;56.26;101550.31;5027754;28;20037;-38
2023/06/01 04:25:29;;;;;;;14.27;5.00;;;;;;;16.85;56.43;101547.13;5026437;28;20510;-40
2023/06/01 04:27:55;;;;;;;13.80;5.50;;;;;;;16.76;56.87;101556.59;5025540;28;20029;-40
2023/06/01 04:30:22;;;;;;;12.98;5.30;;;;;;;16.80;56.73;101561.69;5024135;28;20026;-37
2023/06/01 04:32:48;;;;;;;14.88;5.72;;;;;;;16.68;57.12;101558.09;5016668;28;20047;-38
2023/06/01 04:35:14;;;;;;;19.67;6.18;;;;;;;16.58;57.71;101553.44;5021837;28;20112;-41
2023/06/01 04:37:41;;;;;;;14.15;5.40;;;;;;;16.53;57.82;101549.41;5012735;28;20219;-37
2023/06/01 04:40:09;;;;;;;22.27;5.82;;;;;;;16.50;58.27;101544.31;5011487;28;20607;-37
2023/06/01 04:42:41;;;;;;;19.08;6.55;;;;;;;16.54;57.77;101551.13;5004389;28;20033;-39
2023/06/01 04:45:09;;;;;;;17.20;5.57;;;;;;;16.60;57.80;101550.66;5019805;28;20059;-38
2023/06/01 04:47:39;;;;;;;19.77;5.35;;;;;;;16.69;57.77;101558.00;5023322;28;20037;-37
2023/06/01 04:50:09;;;;;;;13.93;5.55;;;;;;;16.79;57.71;101560.00;5019625;28;20026;-36
2023/06/01 04:52:36;;;;;;;12.80;5.72;;;;;;;16.76;57.95;101558.41;5021425;28;20084;-41
2023/06/01 04:55:04;;;;;;;13.60;5.18;;;;;;;16.84;57.52;101552.56;5017323;28;20036;-37
2023/06/01 04:57:30;;;;;;;14.63;4.63;;;;;;;16.84;57.92;101555.22;5016015;28;20136;-39
2023/06/01 04:59:56;;;;;;;14.32;5.55;;;;;;;16.87;58.05;101553.19;5023468;28;20068;-38
2023/06/01 05:02:23;;;;;;;14.80;6.07;;;;;;;16.88;57.93;101560.19;5022384;28;20076;-41
2023/06/01 05:04:49;;;;;;;14.57;5.03;;;;;;;16.90;57.96;101552.09;5007906;28;20026;-37
2023/06/01 05:07:14;;;;;;;13.07;5.18;;;;;;;16.93;57.62;101546.56;5026977;28;20041;-38
2023/06/01 05:09:40;;;;;;;6.60;3.40;;;;;;;16.80;58.27;101567.00;5025578;28;20052;-36
2023/06/01 05:12:06;;;;;;;10.82;4.95;;;;;;;16.71;58.01;101553.41;5025382;28;20483;-37
2023/06/01 05:14:31;;;;;;;12.88;4.55;;;;;;;16.64;58.28;101568.09;5028442;28;20456;-36
2023/06/01 05:16:57;;;;;;;13.23;4.82;;;;;;;16.60;58.32;101563.94;5026118;28;20062;-38
2023/06/01 05:19:22;;;;;;;11.70;4.93;;;;;;;16.66;58.25;101560.00;5024724;28;20098;-43
2023/06/01 05:21:49;;;;;;;12.98;5.43;;;;;;;16.70;58.12;101557.06;5026001;28;20586;-37
2023/06/01 05:24:18;;;;;;;15.32;5.25;;;;;;;16.70;58.09;101562.38;5026191;28;20491;-40
2023/06/01 05:26:44;;;;;;;15.88;5.75;;;;;;;16.64;58.46;101565.44;5030286;28;20029;-36
2023/06/01 05:29:09;;;;;;;11.70;4.80;;;;;;;16.62;58.22;101559.38;5028791;28;21449;-38
2023/06/01 05:31:36;;;;;;;5.25;2.55;;;;;;;16.52;58.55;101574.28;5023587;28;20037;-37
2023/06/01 05:34:01;;;;;;;19.70;6.63;;;;;;;16.40;58.65;101554.72;5025811;28;20017;-37
2023/06/01 05:36:27;;;;;;;13.15;4.75;;;;;;;16.38;58.72;101561.94;5026356;28;20586;-36
2023/06/01 05:38:53;;;;;;;12.13;4.45;;;;;;;16.36;58.76;101559.41;5023470;28;20025;-36
2023/06/01 05:41:20;;;;;;;11.52;4.38;;;;;;;16.41;58.26;101556.44;5025534;28;20415;-37
2023/06/01 05:43:45;;;;;;;18.90;4.95;;;;;;;16.44;57.98;101567.69;5009055;28;20120;-36
2023/06/01 05:46:10;;;;;;;11.77;4.60;;;;;;;16.44;57.81;101562.38;5025956;28;20467;-37
2023/06/01 05:48:36;;;;;;;10.10;3.80;;;;;;;16.46;57.61;101563.13;5024082;28;20033;-39
2023/06/01 05:51:01;;;;;;;13.75;5.40;;;;;;;16.56;57.25;101560.66;5026721;28;20040;-36
2023/06/01 05:53:27;;;;;;;10.18;4.13;;;;;;;16.62;56.67;101570.00;5025041;28;20018;-36
2023/06/01 05:55:53;;;;;;;17.02;5.25;;;;;;;16.74;56.13;101568.31;5026648;28;20040;-37
2023/06/01 05:58:18;;;;;;;13.10;4.70;;;;;;;16.75;55.92;101564.69;5024734;28;20033;-37
2023/06/01 06:00:44;;;;;;;10.90;4.03;;;;;;;16.80;55.80;101561.69;5025455;28;20033;-36
2023/06/01 06:03:10;;;;;;;13.50;4.40;;;;;;;16.88;55.54;101554.00;5024522;28;20034;-37
2023/06/01 06:05:35;;;;;;;12.05;3.83;;;;;;;16.85;55.53;101557.75;5009920;28;20033;-40
2023/06/01 06:08:01;;;;;;;11.95;3.78;;;;;;;16.81;55.56;101560.75;5024437;28;20539;-38
2023/06/01 06:10:26;;;;;;;10.60;3.88;;;;;;;16.81;55.65;101563.41;5023246;28;20448;-37
2023/06/01 06:12:52;;;;;;;15.63;4.68;;;;;;;16.85;55.45;101552.44;5024862;28;20021;-38
2023/06/01 06:15:17;;;;;;;14.75;4.38;;;;;;;16.92;55.33;101560.81;5018276;28;20029;-38
2023/06/01 06:17:43;;;;;;;15.85;4.15;;;;;;;16.97;55.24;101557.84;5023804;28;20040;-39
2023/06/01 06:20:09;;;;;;;13.15;4.13;;;;;;;17.02;55.09;101555.72;5022295;28;20041;-38
2023/06/01 06:22:35;;;;;;;13.82;4.30;;;;;;;17.08;55.02;101549.97;5024220;28;20635;-36
2023/06/01 06:25:01;;;;;;;9.77;3.92;;;;;;;17.18;55.00;101550.13;5017722;28;20044;-37
2023/06/01 06:27:26;;;;;;;12.70;5.78;;;;;;;17.18;55.14;101555.44;5020479;28;20045;-38
2023/06/01 06:29:51;;;;;;;14.38;4.00;;;;;;;17.14;55.27;101554.00;5026902;28;20037;-40
2023/06/01 06:32:19;;;;;;;25.00;5.40;;;;;;;17.08;55.47;101543.78;5023082;28;20033;-39
2023/06/01 06:34:45;;;;;;;10.40;3.90;;;;;;;17.03;55.82;101549.44;5020935;28;20124;-39
2023/06/01 06:37:11;;;;;;;12.63;3.83;;;;;;;17.05;55.72;101545.72;5019891;28;20451;-40
2023/06/01 06:39:37;;;;;;;8.80;4.05;;;;;;;17.05;55.80;101550.19;5020162;28;20041;-38
2023/06/01 06:42:05;;;;;;;14.48;4.03;;;;;;;17.09;55.55;101556.13;5024036;28;20021;-38
2023/06/01 06:44:30;;;;;;;7.75;3.60;;;;;;;17.15;55.27;101556.53;5020069;28;20117;-39
2023/06/01 06:46:58;;;;;;;10.32;4.20;;;;;;;17.23;54.95;101555.97;5022010;28;20485;-37
2023/06/01 06:49:24;;;;;;;8.45;3.53;;;;;;;17.31;54.62;101556.28;5027776;28;20034;-38
2023/06/01 06:51:49;;;;;;;9.70;3.42;;;;;;;17.43;54.28;101558.97;5022986;28;20403;-40
2023/06/01 06:54:15;;;;;;;14.77;4.97;;;;;;;17.43;54.27;101553.66;5027363;28;20037;-37
2023/06/01 06:56:40;;;;;;;12.20;3.95;;;;;;;17.49;54.26;101547.88;5024870;28;20064;-37
2023/06/01 06:59:06;;;;;;;8.18;3.20;;;;;;;17.58;53.94;101549.84;5030491;28;20033;-40
2023/06/01 07:01:35;;;;;;;15.32;4.55;;;;;;;17.60;53.94;101547.06;5029306;28;20021;-39
2023/06/01 07:04:01;;;;;;;12.85;3.78;;;;;;;17.58;53.79;101544.53;5027553;28;20036;-38
2023/06/01 07:06:26;;;;;;;12.73;4.45;;;;;;;17.49;53.85;101546.06;5027111;28;20033;-40
2023/06/01 07:08:52;;;;;;;12.10;3.85;;;;;;;17.43;54.00;101558.97;5025786;28;20029;-38
2023/06/01 07:11:18;;;;;;;9.02;4.03;;;;;;;17.34;54.07;101561.34;5029344;28;20491;-37
2023/06/01 07:13:44;;;;;;;10.57;4.25;;;;;;;17.23;54.38;101548.00;5021193;28;20084;-38
2023/06/01 07:16:09;;;;;;;10.75;3.45;;;;;;;17.23;54.24;101555.97;5025817;28;20404;-39
2023/06/01 07:18:34;;;;;;;12.45;4.18;;;;;;;17.27;54.13;101561.91;5004628;28;20038;-38
2023/06/01 07:21:01;;;;;;;13.18;5.70;;;;;;;17.25;54.29;101562.03;5026470;28;20391;-38
2023/06/01 07:23:26;;;;;;;8.80;3.45;;;;;;;17.32;54.09;101554.44;5024418;28;21279;-38
2023/06/01 07:25:52;;;;;;;14.95;5.63;;;;;;;17.35;54.02;101556.88;5021215;28;20080;-39
2023/06/01 07:28:17;;;;;;;9.45;3.50;;;;;;;17.31;54.31;101561.59;5024086;28;20029;-38
2023/06/01 07:30:43;;;;;;;8.52;3.45;;;;;;;17.30;54.10;101559.03;5008754;28;20041;-38
2023/06/01 07:33:08;;;;;;;13.80;2.90;;;;;;;17.31;54.15;101561.59;5014217;28;20056;-38
2023/06/01 07:35:34;;;;;;;10.35;3.72;;;;;;;17.30;54.21;101557.22;5025531;28;20045;-37
2023/06/01 07:38:03;;;;;;;7.88;3.53;;;;;;;17.23;54.07;101563.94;5026313;28;20037;-41
2023/06/01 07:40:28;;;;;;;9.23;3.53;;;;;;;17.22;53.79;101548.94;5027295;28;20033;-37
2023/06/01 07:42:54;;;;;;;12.85;4.38;;;;;;;17.27;53.92;101549.47;5022299;28;20395;-40
2023/06/01 07:45:19;;;;;;;12.45;3.50;;;;;;;17.29;53.86;101559.97;5002477;28;20037;-38
2023/06/01 07:47:45;;;;;;;13.90;3.20;;;;;;;17.35;53.64;101564.88;5026121;28;20084;-38
2023/06/01 07:50:11;;;;;;;7.68;3.42;;;;;;;17.42;53.33;101562.59;5007841;28;20067;-38
2023/06/01 07:52:37;;;;;;;8.55;3.30;;;;;;;17.50;53.04;101565.53;5026218;28;20408;-39
2023/06/01 07:55:03;;;;;;;9.93;4.63;;;;;;;17.54;52.74;101556.38;5021787;28;20625;-39
2023/06/01 07:57:28;;;;;;;8.85;3.10;;;;;;;17.61;52.37;101560.28;5027902;28;20030;-37
2023/06/01 07:59:54;;;;;;;8.85;3.47;;;;;;;17.67;52.43;101556.31;5024753;28;20114;-39
2023/06/01 08:02:20;;;;;;;6.93;3.38;;;;;;;17.64;52.24;101554.69;5027892;28;20048;-38
2023/06/01 08:04:46;;;;;;;10.85;4.43;;;;;;;17.57;52.26;101555.28;5019903;28;20069;-38
2023/06/01 08:07:14;;;;;;;8.85;3.10;;;;;;;17.65;52.21;101556.41;5027613;28;20025;-40
2023/06/01 08:09:39;;;;;;;8.20;3.28;;;;;;;17.68;52.25;101560.66;5027840;28;20033;-41
2023/06/01 08:12:05;;;;;;;5.47;3.58;;;;;;;17.73;51.97;101560.31;5023999;28;20546;-38
2023/06/01 08:14:33;;;;;;;13.75;3.60;;;;;;;17.70;52.07;101565.84;5001808;28;20484;-39
2023/06/01 08:17:01;;;;;;;10.25;3.95;;;;;;;17.68;51.95;101563.31;5026701;28;20080;-40
2023/06/01 08:19:27;;;;;;;10.63;3.58;;;;;;;17.69;51.77;101543.72;5023296;28;20040;-39
2023/06/01 08:21:52;;;;;;;8.02;3.22;;;;;;;17.81;51.59;101557.91;5021499;28;20116;-39
2023/06/01 08:24:22;;;;;;;8.00;3.85;;;;;;;17.83;51.51;101563.97;5021764;28;20036;-38
2023/06/01 08:26:48;;;;;;;8.38;2.92;;;;;;;17.76;51.59;101555.59;5013725;28;20068;-37
2023/06/01 08:29:13;;;;;;;7.75;3.10;;;;;;;17.64;51.83;101567.19;5016342;28;20172;-39
2023/06/01 08:31:39;;;;;;;8.93;4.13;;;;;;;17.63;51.78;101550.34;5006148;28;20036;-38
2023/06/01 08:34:05;;;;;;;12.45;3.15;;;;;;;17.61;51.72;101536.34;5025305;28;20057;-38
2023/06/01 08:36:31;;;;;;;14.57;3.40;;;;;;;17.63;51.61;101539.69;5025709;28;20686;-38
2023/06/01 08:38:56;;;;;;;5.65;2.50;;;;;;;17.58;51.59;101536.56;5027194;28;20037;-38
2023/06/01 08:41:46;;;;;;;15.73;3.42;;;;;;;17.66;51.11;101534.16;5031065;28;20376;-39
2023/06/01 08:44:14;;;;;;;10.40;3.22;;;;;;;17.74;50.83;101546.88;5020514;28;20064;-39
2023/06/01 08:46:41;;;;;;;15.68;4.63;;;;;;;17.71;51.04;101524.97;5019269;28;20041;-39
2023/06/01 08:49:10;;;;;;;9.02;3.05;;;;;;;17.76;51.03;101541.47;5026195;28;20120;-41
2023/06/01 08:51:37;;;;;;;13.93;3.50;;;;;;;17.73;50.94;101545.19;5024400;28;20127;-38
2023/06/01 08:54:05;;;;;;;8.85;3.42;;;;;;;17.68;51.11;101542.88;5022925;28;20029;-39
2023/06/01 08:56:31;;;;;;;7.00;2.95;;;;;;;17.74;51.11;101530.91;5025542;28;20064;-37
2023/06/01 08:58:59;;;;;;;7.80;3.65;;;;;;;17.82;50.92;101533.00;5024436;28;20068;-39
2023/06/01 09:01:25;;;;;;;9.00;3.08;;;;;;;17.90;50.69;101543.91;5019152;28;20118;-39
2023/06/01 09:03:51;;;;;;;8.88;2.45;;;;;;;18.04;50.25;101534.88;5025661;28;20041;-38
2023/06/01 09:06:17;;;;;;;6.45;2.50;;;;;;;18.13;50.04;101541.31;5027399;28;20549;-39
2023/06/01 09:08:45;;;;;;;10.90;3.13;;;;;;;18.18;49.92;101538.28;5024415;28;20037;-39
2023/06/01 09:11:10;;;;;;;9.35;3.00;;;;;;;18.23;49.68;101538.78;5022035;28;20053;-39
2023/06/01 09:13:37;;;;;;;9.73;3.00;;;;;;;18.17;49.86;101534.78;5026610;28;20424;-38
2023/06/01 09:16:04;;;;;;;9.80;3.08;;;;;;;18.20;49.97;101531.03;5026408;28;20029;-40
2023/06/01 09:18:30;;;;;;;5.65;3.13;;;;;;;18.18;49.93;101535.63;5008673;28;20148;-39
2023/06/01 09:21:10;;;;;;;11.68;3.30;;;;;;;18.31;49.89;101527.53;5023335;28;20120;-37
2023/06/01 09:23:35;;;;;;;7.20;2.88;;;;;;;18.38;49.78;101528.75;5020299;28;20033;-37
2023/06/01 09:26:06;;;;;;;8.25;3.53;;;;;;;18.40;49.55;101527.66;5024715;28;20029;-38
2023/06/01 09:28:56;;;;;;;6.18;2.70;;;;;;;18.41;49.41;101532.03;5023507;28;20069;-37
2023/06/01 09:31:41;;;;;;;4.45;1.73;;;;;;;18.36;49.42;101530.69;5018163;28;20575;-38
2023/06/01 09:34:08;;;;;;;13.35;4.38;;;;;;;18.40;49.63;101537.47;5023737;28;20072;-38
2023/06/01 09:36:36;;;;;;;13.68;3.53;;;;;;;18.45;49.66;101535.28;5023198;28;20102;-38
2023/06/01 09:39:07;;;;;;;9.57;3.05;;;;;;;18.50;49.41;101533.13;5019836;28;20419;-40
2023/06/01 09:41:48;;;;;;;8.90;2.72;;;;;;;18.57;49.26;101529.00;5023574;28;20639;-39
2023/06/01 09:44:31;;;;;;;5.90;2.72;;;;;;;18.68;49.14;101530.81;5019003;28;20396;-39
2023/06/01 09:47:05;;;;;;;15.32;5.80;;;;;;;18.75;48.81;101523.16;5020003;28;20029;-39
2023/06/01 09:49:37;;;;;;;13.90;4.50;;;;;;;18.74;48.82;101522.34;5025521;28;20373;-40
2023/06/01 09:52:05;;;;;;;8.07;3.70;;;;;;;18.70;48.93;101517.34;5025030;28;20507;-39
2023/06/01 09:54:40;;;;;;;11.85;3.55;;;;;;;18.76;49.14;101518.66;5021977;28;20438;-40
2023/06/01 09:57:06;;;;;;;7.38;3.28;;;;;;;18.81;48.89;101525.34;5025664;28;20721;-40
2023/06/01 09:59:44;;;;;;;7.90;3.75;;;;;;;18.84;48.59;101517.06;5026510;28;20060;-39
2023/06/01 10:02:15;;;;;;;10.70;3.47;;;;;;;18.84;48.72;101518.91;5008538;28;20469;-39
2023/06/01 10:04:44;;;;;;;8.50;3.87;;;;;;;18.79;48.67;101516.63;5016365;28;20072;-41
2023/06/01 10:07:12;;;;;;;12.32;4.93;;;;;;;18.75;48.85;101515.16;5023843;28;20034;-39
2023/06/01 10:09:40;;;;;;;8.38;3.47;;;;;;;18.74;48.85;101510.81;5025339;28;20623;-36
2023/06/01 10:12:07;;;;;;;12.93;3.80;;;;;;;18.84;48.86;101525.06;5020271;28;20183;-39
2023/06/01 10:14:33;;;;;;;8.85;3.70;;;;;;;18.92;48.71;101518.28;5022927;28;20017;-40
2023/06/01 10:17:00;;;;;;;9.35;3.88;;;;;;;18.84;48.72;101525.06;5022891;28;20420;-40
2023/06/01 10:19:25;;;;;;;12.95;3.72;;;;;;;18.77;48.87;101515.91;5026488;28;20029;-37
2023/06/01 10:21:52;;;;;;;8.73;3.10;;;;;;;18.80;48.49;101512.13;5002860;28;20480;-40
2023/06/01 10:24:18;;;;;;;12.52;3.95;;;;;;;18.83;48.58;101504.72;5021202;28;20540;-37
2023/06/01 10:27:14;;;;;;;9.85;4.03;;;;;;;18.88;48.32;101505.19;5032396;28;20048;-37
2023/06/01 10:29:41;;;;;;;10.82;3.33;;;;;;;18.84;48.43;101509.09;5024581;28;20123;-37
2023/06/01 10:32:45;;;;;;;9.82;3.58;;;;;;;18.87;48.69;101508.84;5014524;28;20380;-39
2023/06/01 10:35:31;;;;;;;3.55;2.08;;;;;;;18.92;48.33;101494.28;5030122;28;20036;-39
2023/06/01 10:38:06;;;;;;;8.88;3.03;;;;;;;18.95;48.33;101500.25;5014055;28;20112;-37
2023/06/01 10:40:39;;;;;;;10.00;3.95;;;;;;;18.95;48.34;101499.41;5025316;28;20043;-38
2023/06/01 10:43:08;;;;;;;7.68;3.58;;;;;;;18.94;48.40;101503.03;5031162;28;20052;-35
2023/06/01 10:45:33;;;;;;;6.70;3.70;;;;;;;18.98;48.22;101488.50;5031754;28;20037;-36
2023/06/01 10:48:00;;;;;;;8.48;2.92;;;;;;;18.89;47.87;101493.56;5032656;28;20028;-37
2023/06/01 10:50:25;;;;;;;8.55;3.05;;;;;;;18.84;47.96;101498.41;5027609;28;20059;-38
2023/06/01 10:52:53;;;;;;;11.18;3.08;;;;;;;18.87;47.68;101492.84;5023900;28;20111;-41
2023/06/01 10:55:20;;;;;;;10.02;3.88;;;;;;;18.94;47.74;101492.34;5031625;28;20029;-38
2023/06/01 10:57:47;;;;;;;7.15;3.53;;;;;;;18.99;47.42;101479.50;5032809;28;20470;-35
2023/06/01 11:00:28;;;;;;;7.55;3.10;;;;;;;18.97;47.55;101481.47;5026079;28;20033;-42
2023/06/01 11:03:03;;;;;;;8.57;3.03;;;;;;;19.02;47.24;101479.25;5029212;28;20136;-37
2023/06/01 11:05:51;;;;;;;8.98;3.35;;;;;;;19.06;46.87;101487.88;5025623;28;20391;-40
2023/06/01 11:08:20;;;;;;;7.13;3.08;;;;;;;19.04;47.03;101490.66;5017544;28;20072;-40
2023/06/01 11:10:51;;;;;;;6.47;3.22;;;;;;;19.08;46.98;101473.44;5022267;28;20057;-39
2023/06/01 11:13:27;;;;;;;;;;;;;;;19.08;46.63;101484.09;5024634;28;20546;-37
2023/06/01 11:16:09;;;;;;;8.02;3.05;;;;;;;19.23;46.80;101476.63;5026251;28;19913;-38
2023/06/01 11:18:44;;;;;;;9.38;3.40;;;;;;;19.30;46.41;101472.50;5029634;28;20140;-37
2023/06/01 11:21:18;;;;;;;10.23;3.10;;;;;;;19.27;46.48;101477.25;5025224;28;20045;-37
2023/06/01 11:23:47;;;;;;;12.73;3.28;;;;;;;19.23;46.01;101483.81;5021659;28;20037;-39
2023/06/01 11:26:30;;;;;;;8.95;3.25;;;;;;;19.23;46.16;101475.81;5020938;28;20660;-38